sensor_id;sensor_type;location;lat;lon;timestamp;pressure;altitude;pressure_sealevel;temperature;humidity
60465;BME280;46314;52.392;9.758;2023-08-24T00:00:25;101111.94;;;22.06;68.42
60465;BME280;46314;52.392;9.758;2023-08-24T00:02:52;101114.00;;;21.90;69.37
60465;BME280;46314;52.392;9.758;2023-08-24T00:05:19;101117.66;;;21.90;69.56
60465;BME280;46314;52.392;9.758;2023-08-24T00:07:47;101113.63;;;21.91;69.69
60465;BME280;46314;52.392;9.758;2023-08-24T00:10:14;101112.28;;;21.85;69.48
60465;BME280;46314;52.392;9.758;2023-08-24T00:12:41;101116.22;;;22.00;68.98
60465;BME280;46314;52.392;9.758;2023-08-24T00:15:08;101108.34;;;21.90;69.65
60465;BME280;46314;52.392;9.758;2023-08-24T00:17:35;101107.16;;;21.91;69.76
60465;BME280;46314;52.392;9.758;2023-08-24T00:20:02;101114.09;;;21.93;69.82
60465;BME280;46314;52.392;9.758;2023-08-24T00:22:29;101118.75;;;21.86;69.95
60465;BME280;46314;52.392;9.758;2023-08-24T00:24:57;101115.47;;;21.84;70.35
60465;BME280;46314;52.392;9.758;2023-08-24T00:27:23;101109.63;;;21.92;70.12
60465;BME280;46314;52.392;9.758;2023-08-24T00:29:49;101114.81;;;21.90;70.33
60465;BME280;46314;52.392;9.758;2023-08-24T00:32:16;101118.00;;;21.89;70.41
60465;BME280;46314;52.392;9.758;2023-08-24T00:34:42;101121.13;;;21.84;70.57
60465;BME280;46314;52.392;9.758;2023-08-24T00:37:09;101111.91;;;21.87;70.51
60465;BME280;46314;52.392;9.758;2023-08-24T00:39:35;101109.56;;;21.73;71.45
60465;BME280;46314;52.392;9.758;2023-08-24T00:42:03;101106.91;;;21.80;71.28
60465;BME280;46314;52.392;9.758;2023-08-24T00:44:30;101109.66;;;21.77;71.37
60465;BME280;46314;52.392;9.758;2023-08-24T00:46:56;101099.53;;;21.75;71.27
60465;BME280;46314;52.392;9.758;2023-08-24T00:49:25;101099.53;;;21.75;70.66
60465;BME280;46314;52.392;9.758;2023-08-24T00:51:52;101095.34;;;21.85;70.26
60465;BME280;46314;52.392;9.758;2023-08-24T00:54:18;101096.78;;;21.79;70.64
60465;BME280;46314;52.392;9.758;2023-08-24T00:56:45;101103.47;;;21.71;70.81
60465;BME280;46314;52.392;9.758;2023-08-24T00:59:13;101103.47;;;21.71;71.19
60465;BME280;46314;52.392;9.758;2023-08-24T01:01:41;101109.03;;;21.67;71.08
60465;BME280;46314;52.392;9.758;2023-08-24T01:04:09;101108.41;;;21.74;70.73
60465;BME280;46314;52.392;9.758;2023-08-24T01:06:36;101105.94;;;21.72;71.06
60465;BME280;46314;52.392;9.758;2023-08-24T01:09:03;101098.19;;;21.69;70.71
60465;BME280;46314;52.392;9.758;2023-08-24T01:11:35;101098.91;;;21.66;70.61
60465;BME280;46314;52.392;9.758;2023-08-24T01:14:11;101091.66;;;21.65;70.96
60465;BME280;46314;52.392;9.758;2023-08-24T01:16:43;101097.09;;;21.74;70.52
60465;BME280;46314;52.392;9.758;2023-08-24T01:19:23;101092.91;;;21.68;70.51
60465;BME280;46314;52.392;9.758;2023-08-24T01:21:54;101097.28;;;21.65;70.56
60465;BME280;46314;52.392;9.758;2023-08-24T01:24:29;101094.91;;;21.67;70.42
60465;BME280;46314;52.392;9.758;2023-08-24T01:26:58;101093.72;;;21.68;70.33
60465;BME280;46314;52.392;9.758;2023-08-24T01:29:25;101101.75;;;21.66;70.25
60465;BME280;46314;52.392;9.758;2023-08-24T01:31:52;101094.84;;;21.64;70.29
60465;BME280;46314;52.392;9.758;2023-08-24T01:34:18;101099.19;;;21.61;70.51
60465;BME280;46314;52.392;9.758;2023-08-24T01:36:45;101099.91;;;21.58;70.27
60465;BME280;46314;52.392;9.758;2023-08-24T01:39:20;101097.63;;;21.80;68.96
60465;BME280;46314;52.392;9.758;2023-08-24T01:41:52;101087.53;;;21.63;69.54
60465;BME280;46314;52.392;9.758;2023-08-24T01:44:25;101084.44;;;21.68;69.31
60465;BME280;46314;52.392;9.758;2023-08-24T01:46:54;101082.63;;;21.60;70.28
60465;BME280;46314;52.392;9.758;2023-08-24T01:49:22;101080.91;;;21.55;70.30
60465;BME280;46314;52.392;9.758;2023-08-24T01:51:49;101083.75;;;21.55;70.42
60465;BME280;46314;52.392;9.758;2023-08-24T01:54:16;101083.75;;;21.55;70.82
60465;BME280;46314;52.392;9.758;2023-08-24T01:56:43;101081.53;;;21.64;69.68
60465;BME280;46314;52.392;9.758;2023-08-24T01:59:09;101081.44;;;21.61;69.91
60465;BME280;46314;52.392;9.758;2023-08-24T02:01:37;101082.53;;;21.56;69.79
60465;BME280;46314;52.392;9.758;2023-08-24T02:04:04;101090.84;;;21.49;70.60
60465;BME280;46314;52.392;9.758;2023-08-24T02:06:31;101089.72;;;21.37;70.70
60465;BME280;46314;52.392;9.758;2023-08-24T02:08:57;101083.44;;;21.44;70.04
60465;BME280;46314;52.392;9.758;2023-08-24T02:11:24;101088.47;;;21.51;70.64
60465;BME280;46314;52.392;9.758;2023-08-24T02:13:50;101086.75;;;21.46;70.68
60465;BME280;46314;52.392;9.758;2023-08-24T02:16:17;101076.06;;;21.40;70.45
60465;BME280;46314;52.392;9.758;2023-08-24T02:18:45;101084.91;;;21.38;70.08
60465;BME280;46314;52.392;9.758;2023-08-24T02:21:11;101076.97;;;21.44;70.46
60465;BME280;46314;52.392;9.758;2023-08-24T02:23:38;101078.88;;;21.40;70.70
60465;BME280;46314;52.392;9.758;2023-08-24T02:26:05;101076.44;;;21.38;70.69
60465;BME280;46314;52.392;9.758;2023-08-24T02:28:32;101068.31;;;21.36;70.29
60465;BME280;46314;52.392;9.758;2023-08-24T02:31:00;101072.53;;;21.43;70.06
60465;BME280;46314;52.392;9.758;2023-08-24T02:33:27;101069.88;;;21.34;70.92
60465;BME280;46314;52.392;9.758;2023-08-24T02:35:55;101072.63;;;21.30;70.72
60465;BME280;46314;52.392;9.758;2023-08-24T02:38:22;101073.53;;;21.34;70.25
60465;BME280;46314;52.392;9.758;2023-08-24T02:40:49;101065.41;;;21.33;70.54
60465;BME280;46314;52.392;9.758;2023-08-24T02:43:15;101064.88;;;21.27;71.15
60465;BME280;46314;52.392;9.758;2023-08-24T02:45:42;101063.72;;;21.28;70.99
60465;BME280;46314;52.392;9.758;2023-08-24T02:48:08;101055.69;;;21.30;70.34
60465;BME280;46314;52.392;9.758;2023-08-24T02:50:35;101057.13;;;21.24;70.75
60465;BME280;46314;52.392;9.758;2023-08-24T02:53:03;101054.31;;;21.24;70.84
60465;BME280;46314;52.392;9.758;2023-08-24T02:55:31;101051.13;;;21.10;71.64
60465;BME280;46314;52.392;9.758;2023-08-24T02:57:58;101047.16;;;21.11;71.26
60465;BME280;46314;52.392;9.758;2023-08-24T03:00:26;101043.56;;;21.14;71.23
60465;BME280;46314;52.392;9.758;2023-08-24T03:02:52;101048.69;;;21.08;70.54
60465;BME280;46314;52.392;9.758;2023-08-24T03:05:18;101045.41;;;21.06;70.91
60465;BME280;46314;52.392;9.758;2023-08-24T03:07:45;101038.31;;;20.96;71.67
60465;BME280;46314;52.392;9.758;2023-08-24T03:10:13;101030.09;;;20.91;71.86
60465;BME280;46314;52.392;9.758;2023-08-24T03:12:39;101037.66;;;20.87;72.00
60465;BME280;46314;52.392;9.758;2023-08-24T03:15:07;101033.22;;;20.86;72.02
60465;BME280;46314;52.392;9.758;2023-08-24T03:17:33;101035.75;;;20.91;71.61
60465;BME280;46314;52.392;9.758;2023-08-24T03:20:00;101041.59;;;20.83;72.74
60465;BME280;46314;52.392;9.758;2023-08-24T03:22:26;101039.50;;;20.95;72.29
60465;BME280;46314;52.392;9.758;2023-08-24T03:24:53;101038.31;;;20.96;71.70
60465;BME280;46314;52.392;9.758;2023-08-24T03:27:21;101048.03;;;20.83;72.42
60465;BME280;46314;52.392;9.758;2023-08-24T03:29:47;101044.03;;;20.84;73.17
60465;BME280;46314;52.392;9.758;2023-08-24T03:32:14;101051.94;;;20.78;73.38
60465;BME280;46314;52.392;9.758;2023-08-24T03:34:40;101037.84;;;20.78;72.04
60465;BME280;46314;52.392;9.758;2023-08-24T03:37:07;101044.50;;;20.86;71.92
60465;BME280;46314;52.392;9.758;2023-08-24T03:39:33;101045.47;;;20.78;72.08
60465;BME280;46314;52.392;9.758;2023-08-24T03:42:02;101052.03;;;20.82;72.67
60465;BME280;46314;52.392;9.758;2023-08-24T03:44:30;101057.22;;;20.80;71.90
60465;BME280;46314;52.392;9.758;2023-08-24T03:46:57;101051.50;;;20.92;71.65
60465;BME280;46314;52.392;9.758;2023-08-24T03:49:23;101051.56;;;20.80;72.45
60465;BME280;46314;52.392;9.758;2023-08-24T03:51:50;101043.22;;;20.55;72.71
60465;BME280;46314;52.392;9.758;2023-08-24T03:54:16;101034.31;;;20.82;71.79
60465;BME280;46314;52.392;9.758;2023-08-24T03:56:43;101043.66;;;20.70;72.83
60465;BME280;46314;52.392;9.758;2023-08-24T03:59:09;101052.09;;;20.70;72.21
60465;BME280;46314;52.392;9.758;2023-08-24T04:01:37;101051.47;;;20.76;71.74
60465;BME280;46314;52.392;9.758;2023-08-24T04:04:03;101047.00;;;20.75;71.40
60465;BME280;46314;52.392;9.758;2023-08-24T04:06:30;101050.06;;;20.83;71.02
60465;BME280;46314;52.392;9.758;2023-08-24T04:08:56;101063.13;;;20.75;71.40
60465;BME280;46314;52.392;9.758;2023-08-24T04:11:23;101067.41;;;20.69;71.57
60465;BME280;46314;52.392;9.758;2023-08-24T04:13:49;101076.34;;;20.58;72.01
60465;BME280;46314;52.392;9.758;2023-08-24T04:16:16;101084.75;;;20.71;71.81
60465;BME280;46314;52.392;9.758;2023-08-24T04:18:44;101090.41;;;20.71;72.15
60465;BME280;46314;52.392;9.758;2023-08-24T04:21:10;101079.47;;;20.69;72.26
60465;BME280;46314;52.392;9.758;2023-08-24T04:23:37;101076.13;;;20.64;72.32
60465;BME280;46314;52.392;9.758;2023-08-24T04:26:03;101074.78;;;20.61;73.23
60465;BME280;46314;52.392;9.758;2023-08-24T04:28:30;101070.22;;;20.69;72.95
60465;BME280;46314;52.392;9.758;2023-08-24T04:30:56;101069.03;;;20.70;72.33
60465;BME280;46314;52.392;9.758;2023-08-24T04:33:23;101082.91;;;20.63;73.08
60465;BME280;46314;52.392;9.758;2023-08-24T04:35:51;101093.94;;;20.68;72.36
60465;BME280;46314;52.392;9.758;2023-08-24T04:38:18;101092.59;;;20.77;72.03
60465;BME280;46314;52.392;9.758;2023-08-24T04:40:52;101088.84;;;20.73;72.40
60465;BME280;46314;52.392;9.758;2023-08-24T04:43:19;101087.94;;;20.69;72.70
60465;BME280;46314;52.392;9.758;2023-08-24T04:45:46;101079.50;;;20.85;72.28
60465;BME280;46314;52.392;9.758;2023-08-24T04:48:12;101069.50;;;20.88;72.00
60465;BME280;46314;52.392;9.758;2023-08-24T04:50:39;101069.97;;;20.90;72.79
60465;BME280;46314;52.392;9.758;2023-08-24T04:53:07;101079.69;;;20.92;72.84
60465;BME280;46314;52.392;9.758;2023-08-24T04:55:33;101089.53;;;20.98;72.76
60465;BME280;46314;52.392;9.758;2023-08-24T04:58:00;101091.00;;;21.08;72.72
60465;BME280;46314;52.392;9.758;2023-08-24T05:00:26;101090.38;;;21.15;72.90
60465;BME280;46314;52.392;9.758;2023-08-24T05:02:53;101093.63;;;21.17;73.15
60465;BME280;46314;52.392;9.758;2023-08-24T05:05:19;101084.28;;;21.13;73.90
60465;BME280;46314;52.392;9.758;2023-08-24T05:07:46;101083.34;;;21.09;74.00
60465;BME280;46314;52.392;9.758;2023-08-24T05:10:14;101074.34;;;21.19;74.19
60465;BME280;46314;52.392;9.758;2023-08-24T05:12:41;101089.66;;;21.18;73.97
60465;BME280;46314;52.392;9.758;2023-08-24T05:15:08;101092.91;;;21.20;74.36
60465;BME280;46314;52.392;9.758;2023-08-24T05:17:35;101084.09;;;21.22;74.42
60465;BME280;46314;52.392;9.758;2023-08-24T05:20:01;101071.88;;;21.17;74.55
60465;BME280;46314;52.392;9.758;2023-08-24T05:22:28;101062.34;;;21.22;73.96
60465;BME280;46314;52.392;9.758;2023-08-24T05:24:54;101063.59;;;21.25;74.08
60465;BME280;46314;52.392;9.758;2023-08-24T05:27:22;101063.97;;;21.23;74.44
60465;BME280;46314;52.392;9.758;2023-08-24T05:29:49;101063.72;;;21.28;73.76
60465;BME280;46314;52.392;9.758;2023-08-24T05:32:15;101060.41;;;21.26;73.90
60465;BME280;46314;52.392;9.758;2023-08-24T05:34:42;101066.81;;;21.23;74.34
60465;BME280;46314;52.392;9.758;2023-08-24T05:37:08;101072.81;;;21.22;73.92
60465;BME280;46314;52.392;9.758;2023-08-24T05:39:35;101081.00;;;21.27;73.74
60465;BME280;46314;52.392;9.758;2023-08-24T05:42:01;101077.81;;;21.28;74.32
60465;BME280;46314;52.392;9.758;2023-08-24T05:44:29;101078.34;;;21.34;73.43
60465;BME280;46314;52.392;9.758;2023-08-24T05:46:55;101092.09;;;21.35;73.26
60465;BME280;46314;52.392;9.758;2023-08-24T05:49:22;101096.09;;;21.34;73.40
60465;BME280;46314;52.392;9.758;2023-08-24T05:51:50;101090.38;;;21.31;73.52
60465;BME280;46314;52.392;9.758;2023-08-24T05:54:17;101094.19;;;21.38;72.99
60465;BME280;46314;52.392;9.758;2023-08-24T05:56:44;101081.72;;;21.24;72.94
60465;BME280;46314;52.392;9.758;2023-08-24T05:59:10;101073.63;;;21.22;73.28
60465;BME280;46314;52.392;9.758;2023-08-24T06:01:38;101064.59;;;21.32;74.08
60465;BME280;46314;52.392;9.758;2023-08-24T06:04:05;101056.75;;;21.42;73.74
60465;BME280;46314;52.392;9.758;2023-08-24T06:06:31;101051.84;;;21.38;74.61
60465;BME280;46314;52.392;9.758;2023-08-24T06:08:58;101042.94;;;21.36;74.86
60465;BME280;46314;52.392;9.758;2023-08-24T06:11:24;101032.56;;;21.41;74.84
60465;BME280;46314;52.392;9.758;2023-08-24T06:13:51;101037.09;;;21.45;75.19
60465;BME280;46314;52.392;9.758;2023-08-24T06:16:17;101040.91;;;21.37;74.62
60465;BME280;46314;52.392;9.758;2023-08-24T06:18:45;101041.84;;;21.41;74.61
60465;BME280;46314;52.392;9.758;2023-08-24T06:21:12;101035.94;;;21.46;74.33
60465;BME280;46314;52.392;9.758;2023-08-24T06:23:38;101040.47;;;21.35;74.03
60465;BME280;46314;52.392;9.758;2023-08-24T06:26:05;101043.47;;;21.42;74.48
60465;BME280;46314;52.392;9.758;2023-08-24T06:28:31;101030.38;;;21.34;74.26
60465;BME280;46314;52.392;9.758;2023-08-24T06:31:00;101029.28;;;21.23;74.98
60465;BME280;46314;52.392;9.758;2023-08-24T06:33:27;101023.31;;;20.92;76.59
60465;BME280;46314;52.392;9.758;2023-08-24T06:35:55;101013.41;;;20.54;78.81
60465;BME280;46314;52.392;9.758;2023-08-24T06:38:21;101012.56;;;20.38;79.13
60465;BME280;46314;52.392;9.758;2023-08-24T06:40:48;101015.72;;;20.36;79.94
60465;BME280;46314;52.392;9.758;2023-08-24T06:43:15;101013.00;;;20.40;81.37
60465;BME280;46314;52.392;9.758;2023-08-24T06:45:41;101008.56;;;20.83;79.17
60465;BME280;46314;52.392;9.758;2023-08-24T06:48:07;100992.50;;;21.35;76.55
60465;BME280;46314;52.392;9.758;2023-08-24T06:50:34;101006.78;;;21.42;76.79
60465;BME280;46314;52.392;9.758;2023-08-24T06:53:02;101018.72;;;21.51;76.76
60465;BME280;46314;52.392;9.758;2023-08-24T06:55:29;101010.63;;;21.50;77.39
60465;BME280;46314;52.392;9.758;2023-08-24T06:57:56;101017.44;;;21.49;77.85
60465;BME280;46314;52.392;9.758;2023-08-24T07:00:23;101014.22;;;21.66;77.04
60465;BME280;46314;52.392;9.758;2023-08-24T07:02:51;101011.09;;;21.71;77.33
60465;BME280;46314;52.392;9.758;2023-08-24T07:05:18;101010.59;;;21.66;76.78
60465;BME280;46314;52.392;9.758;2023-08-24T07:07:44;101014.25;;;21.50;77.11
60465;BME280;46314;52.392;9.758;2023-08-24T07:10:12;101022.19;;;21.80;75.84
60465;BME280;46314;52.392;9.758;2023-08-24T07:12:39;101028.16;;;21.94;75.44
60465;BME280;46314;52.392;9.758;2023-08-24T07:15:06;101026.59;;;22.17;75.31
60465;BME280;46314;52.392;9.758;2023-08-24T07:17:33;101027.94;;;22.23;74.97
60465;BME280;46314;52.392;9.758;2023-08-24T07:19:59;101021.03;;;22.40;75.00
60465;BME280;46314;52.392;9.758;2023-08-24T07:22:26;101016.63;;;22.23;74.60
60465;BME280;46314;52.392;9.758;2023-08-24T07:24:52;101017.38;;;22.59;74.22
60465;BME280;46314;52.392;9.758;2023-08-24T07:27:20;101009.69;;;22.59;74.72
60465;BME280;46314;52.392;9.758;2023-08-24T07:29:47;101021.56;;;22.68;74.13
60465;BME280;46314;52.392;9.758;2023-08-24T07:32:13;101009.72;;;22.82;73.39
60465;BME280;46314;52.392;9.758;2023-08-24T07:34:40;101007.56;;;22.99;71.43
60465;BME280;46314;52.392;9.758;2023-08-24T07:37:07;101006.00;;;23.01;71.05
60465;BME280;46314;52.392;9.758;2023-08-24T07:39:33;100995.25;;;22.87;72.60
60465;BME280;46314;52.392;9.758;2023-08-24T07:42:00;100991.25;;;23.12;72.18
60465;BME280;46314;52.392;9.758;2023-08-24T07:44:27;100992.84;;;22.43;71.21
60465;BME280;46314;52.392;9.758;2023-08-24T07:46:54;100979.06;;;22.42;71.79
60465;BME280;46314;52.392;9.758;2023-08-24T07:49:21;100978.34;;;22.91;69.68
60465;BME280;46314;52.392;9.758;2023-08-24T07:51:47;100971.50;;;22.69;71.32
60465;BME280;46314;52.392;9.758;2023-08-24T07:54:14;100974.16;;;22.81;72.46
60465;BME280;46314;52.392;9.758;2023-08-24T07:56:40;100967.47;;;22.70;73.11
60465;BME280;46314;52.392;9.758;2023-08-24T07:59:07;100975.56;;;22.95;72.45
60465;BME280;46314;52.392;9.758;2023-08-24T08:01:34;100968.66;;;22.92;73.48
60465;BME280;46314;52.392;9.758;2023-08-24T08:04:01;100968.03;;;23.02;69.64
60465;BME280;46314;52.392;9.758;2023-08-24T08:06:27;100962.31;;;21.90;74.01
60465;BME280;46314;52.392;9.758;2023-08-24T08:08:54;100955.97;;;22.17;74.39
60465;BME280;46314;52.392;9.758;2023-08-24T08:11:20;100962.44;;;22.60;72.35
60465;BME280;46314;52.392;9.758;2023-08-24T08:13:47;100953.19;;;23.09;70.66
60465;BME280;46314;52.392;9.758;2023-08-24T08:16:13;100958.63;;;23.21;69.79
60465;BME280;46314;52.392;9.758;2023-08-24T08:18:41;100948.69;;;23.31;69.19
60465;BME280;46314;52.392;9.758;2023-08-24T08:21:14;100960.69;;;23.51;68.41
60465;BME280;46314;52.392;9.758;2023-08-24T08:23:41;100964.81;;;23.57;68.43
60465;BME280;46314;52.392;9.758;2023-08-24T08:26:08;100961.34;;;23.41;67.65
60465;BME280;46314;52.392;9.758;2023-08-24T08:28:36;100957.22;;;23.35;67.19
60465;BME280;46314;52.392;9.758;2023-08-24T08:31:02;100962.31;;;23.52;67.29
60465;BME280;46314;52.392;9.758;2023-08-24T08:33:29;100964.69;;;23.77;66.41
60465;BME280;46314;52.392;9.758;2023-08-24T08:35:57;100967.41;;;23.70;66.64
60465;BME280;46314;52.392;9.758;2023-08-24T08:38:23;100968.66;;;23.72;66.52
60465;BME280;46314;52.392;9.758;2023-08-24T08:40:50;100972.88;;;23.82;66.83
60465;BME280;46314;52.392;9.758;2023-08-24T08:43:16;100967.22;;;23.82;65.88
60465;BME280;46314;52.392;9.758;2023-08-24T08:45:44;100969.38;;;23.92;65.21
60465;BME280;46314;52.392;9.758;2023-08-24T08:48:11;100961.00;;;23.73;64.88
60465;BME280;46314;52.392;9.758;2023-08-24T08:50:38;100968.09;;;23.90;63.68
60465;BME280;46314;52.392;9.758;2023-08-24T08:53:06;100969.91;;;23.75;64.21
60465;BME280;46314;52.392;9.758;2023-08-24T08:55:32;100959.34;;;24.02;64.54
60465;BME280;46314;52.392;9.758;2023-08-24T08:58:00;100960.88;;;22.85;67.58
60465;BME280;46314;52.392;9.758;2023-08-24T09:00:27;100962.69;;;22.74;67.67
60465;BME280;46314;52.392;9.758;2023-08-24T09:02:55;100950.47;;;22.93;66.89
60465;BME280;46314;52.392;9.758;2023-08-24T09:05:23;100951.44;;;23.54;65.61
60465;BME280;46314;52.392;9.758;2023-08-24T09:07:50;100954.72;;;23.60;64.55
60465;BME280;46314;52.392;9.758;2023-08-24T09:10:19;100961.34;;;23.68;64.42
60465;BME280;46314;52.392;9.758;2023-08-24T09:12:45;100952.28;;;23.85;65.50
60465;BME280;46314;52.392;9.758;2023-08-24T09:15:12;100949.16;;;23.37;66.42
60465;BME280;46314;52.392;9.758;2023-08-24T09:17:48;100943.78;;;23.85;64.56
60465;BME280;46314;52.392;9.758;2023-08-24T09:20:15;100939.94;;;23.74;65.51
60465;BME280;46314;52.392;9.758;2023-08-24T09:22:42;100943.13;;;23.38;65.13
60465;BME280;46314;52.392;9.758;2023-08-24T09:25:09;100939.56;;;24.06;64.87
60465;BME280;46314;52.392;9.758;2023-08-24T09:27:37;100941.00;;;24.26;63.74
60465;BME280;46314;52.392;9.758;2023-08-24T09:30:05;100935.00;;;24.35;63.21
60465;BME280;46314;52.392;9.758;2023-08-24T09:32:32;100923.91;;;23.55;64.45
60465;BME280;46314;52.392;9.758;2023-08-24T09:35:02;100911.41;;;23.56;64.00
60465;BME280;46314;52.392;9.758;2023-08-24T09:37:31;100918.13;;;23.78;63.43
60465;BME280;46314;52.392;9.758;2023-08-24T09:40:01;100922.34;;;24.25;63.13
60465;BME280;46314;52.392;9.758;2023-08-24T09:42:28;100918.50;;;23.73;63.42
60465;BME280;46314;52.392;9.758;2023-08-24T09:45:02;100905.16;;;24.07;62.19
60465;BME280;46314;52.392;9.758;2023-08-24T09:47:29;100895.53;;;24.15;61.25
60465;BME280;46314;52.392;9.758;2023-08-24T09:49:56;100900.53;;;23.92;62.49
60465;BME280;46314;52.392;9.758;2023-08-24T09:52:23;100895.69;;;24.30;61.73
60465;BME280;46314;52.392;9.758;2023-08-24T09:54:54;100883.28;;;24.08;62.17
60465;BME280;46314;52.392;9.758;2023-08-24T09:57:21;100880.38;;;24.00;62.52
60465;BME280;46314;52.392;9.758;2023-08-24T09:59:49;100877.69;;;24.15;62.63
60465;BME280;46314;52.392;9.758;2023-08-24T10:02:22;100864.94;;;23.94;64.43
60465;BME280;46314;52.392;9.758;2023-08-24T10:04:51;100861.31;;;24.38;62.55
60465;BME280;46314;52.392;9.758;2023-08-24T10:07:20;100854.22;;;24.55;62.45
60465;BME280;46314;52.392;9.758;2023-08-24T10:09:54;100850.00;;;24.42;59.17
60465;BME280;46314;52.392;9.758;2023-08-24T10:12:24;100849.28;;;24.08;61.76
60465;BME280;46314;52.392;9.758;2023-08-24T10:14:58;100857.84;;;24.15;60.73
60465;BME280;46314;52.392;9.758;2023-08-24T10:17:27;100844.06;;;24.10;60.71
60465;BME280;46314;52.392;9.758;2023-08-24T10:19:55;100848.47;;;24.52;59.01
60465;BME280;46314;52.392;9.758;2023-08-24T10:22:24;100841.84;;;24.33;58.48
60465;BME280;46314;52.392;9.758;2023-08-24T10:24:52;100826.25;;;24.13;61.72
60465;BME280;46314;52.392;9.758;2023-08-24T10:27:20;100820.59;;;24.58;58.24
60465;BME280;46314;52.392;9.758;2023-08-24T10:29:47;100828.44;;;24.75;58.39
60465;BME280;46314;52.392;9.758;2023-08-24T10:32:14;100827.97;;;24.69;58.67
60465;BME280;46314;52.392;9.758;2023-08-24T10:34:42;100826.25;;;24.54;58.93
60465;BME280;46314;52.392;9.758;2023-08-24T10:37:10;100814.69;;;24.84;59.19
60465;BME280;46314;52.392;9.758;2023-08-24T10:39:38;100817.34;;;24.55;61.15
60465;BME280;46314;52.392;9.758;2023-08-24T10:42:10;100819.06;;;24.74;59.14
60465;BME280;46314;52.392;9.758;2023-08-24T10:44:38;100811.25;;;24.57;59.73
60465;BME280;46314;52.392;9.758;2023-08-24T10:47:06;100821.38;;;24.54;59.59
60465;BME280;46314;52.392;9.758;2023-08-24T10:49:33;100824.38;;;24.80;58.64
60465;BME280;46314;52.392;9.758;2023-08-24T10:52:20;100820.94;;;25.15;59.54
60465;BME280;46314;52.392;9.758;2023-08-24T10:54:47;100815.41;;;24.70;58.52
60465;BME280;46314;52.392;9.758;2023-08-24T10:57:18;100816.50;;;25.18;56.67
60465;BME280;46314;52.392;9.758;2023-08-24T10:59:45;100811.59;;;25.11;59.81
60465;BME280;46314;52.392;9.758;2023-08-24T11:02:18;100818.44;;;25.03;57.22
60465;BME280;46314;52.392;9.758;2023-08-24T11:05:06;100822.22;;;24.62;57.91
60465;BME280;46314;52.392;9.758;2023-08-24T11:07:34;100826.88;;;24.92;56.40
60465;BME280;46314;52.392;9.758;2023-08-24T11:10:11;100827.44;;;25.12;55.86
60465;BME280;46314;52.392;9.758;2023-08-24T11:13:06;100814.84;;;25.13;56.38
60465;BME280;46314;52.392;9.758;2023-08-24T11:15:33;100818.28;;;25.47;56.48
60465;BME280;46314;52.392;9.758;2023-08-24T11:18:21;100812.59;;;25.51;56.15
60465;BME280;46314;52.392;9.758;2023-08-24T11:20:48;100810.59;;;25.59;55.11
60465;BME280;46314;52.392;9.758;2023-08-24T11:23:17;100806.59;;;25.78;55.21
60465;BME280;46314;52.392;9.758;2023-08-24T11:25:44;100798.78;;;25.42;56.78
60465;BME280;46314;52.392;9.758;2023-08-24T11:28:13;100794.38;;;25.63;57.19
60465;BME280;46314;52.392;9.758;2023-08-24T11:30:42;100786.97;;;25.26;55.67
60465;BME280;46314;52.392;9.758;2023-08-24T11:33:09;100788.63;;;25.45;55.07
60465;BME280;46314;52.392;9.758;2023-08-24T11:35:35;100800.56;;;26.01;54.47
60465;BME280;46314;52.392;9.758;2023-08-24T11:38:02;100791.56;;;25.77;53.86
60465;BME280;46314;52.392;9.758;2023-08-24T11:40:31;100776.13;;;25.78;53.71
60465;BME280;46314;52.392;9.758;2023-08-24T11:42:58;100777.78;;;25.86;54.26
60465;BME280;46314;52.392;9.758;2023-08-24T11:45:30;100769.66;;;25.85;53.30
60465;BME280;46314;52.392;9.758;2023-08-24T11:47:57;100769.19;;;25.50;55.00
60465;BME280;46314;52.392;9.758;2023-08-24T11:50:24;100756.28;;;26.29;52.37
60465;BME280;46314;52.392;9.758;2023-08-24T11:52:52;100742.00;;;25.60;53.78
60465;BME280;46314;52.392;9.758;2023-08-24T11:55:20;100735.16;;;25.72;54.30
60465;BME280;46314;52.392;9.758;2023-08-24T11:57:48;100732.31;;;25.90;52.23
60465;BME280;46314;52.392;9.758;2023-08-24T12:00:15;100735.16;;;25.90;52.47
60465;BME280;46314;52.392;9.758;2023-08-24T12:02:43;100729.47;;;25.86;54.80
60465;BME280;46314;52.392;9.758;2023-08-24T12:05:20;100712.41;;;26.19;51.98
60465;BME280;46314;52.392;9.758;2023-08-24T12:07:47;100707.56;;;25.98;50.99
60465;BME280;46314;52.392;9.758;2023-08-24T12:10:13;100697.81;;;25.92;51.42
60465;BME280;46314;52.392;9.758;2023-08-24T12:12:40;100692.94;;;25.96;53.24
60465;BME280;46314;52.392;9.758;2023-08-24T12:15:15;100694.97;;;25.84;53.46
60465;BME280;46314;52.392;9.758;2023-08-24T12:17:42;100687.22;;;25.92;51.67
60465;BME280;46314;52.392;9.758;2023-08-24T12:20:17;100675.88;;;25.99;50.83
60465;BME280;46314;52.392;9.758;2023-08-24T12:22:44;100675.88;;;26.03;50.78
60465;BME280;46314;52.392;9.758;2023-08-24T12:25:10;100664.50;;;26.24;51.46
60465;BME280;46314;52.392;9.758;2023-08-24T12:27:36;100665.72;;;26.20;50.95
60465;BME280;46314;52.392;9.758;2023-08-24T12:30:04;100664.06;;;26.40;50.61
60465;BME280;46314;52.392;9.758;2023-08-24T12:32:45;100662.88;;;26.13;50.10
60465;BME280;46314;52.392;9.758;2023-08-24T12:35:14;100673.03;;;25.99;50.29
60465;BME280;46314;52.392;9.758;2023-08-24T12:37:40;100660.78;;;26.49;49.97
60465;BME280;46314;52.392;9.758;2023-08-24T12:40:07;100651.00;;;26.50;49.10
60465;BME280;46314;52.392;9.758;2023-08-24T12:42:34;100648.56;;;26.52;48.04
60465;BME280;46314;52.392;9.758;2023-08-24T12:45:12;100645.88;;;25.95;48.55
60465;BME280;46314;52.392;9.758;2023-08-24T12:47:39;100636.88;;;26.21;48.25
60465;BME280;46314;52.392;9.758;2023-08-24T12:50:07;100632.38;;;26.31;48.77
60465;BME280;46314;52.392;9.758;2023-08-24T12:52:34;100627.91;;;26.30;48.32